createdAt,value
2022-08-17T00:01:22.539Z,18.88
2022-08-17T00:07:28.415Z,18.77
2022-08-17T00:13:55.947Z,18.71
2022-08-17T00:19:58.283Z,18.84
2022-08-17T00:26:00.644Z,18.88
2022-08-17T00:33:15.478Z,18.63
2022-08-17T00:38:27.998Z,18.66
2022-08-17T00:44:30.411Z,18.67
2022-08-17T00:50:34.277Z,18.52
2022-08-17T00:56:47.560Z,18.29
2022-08-17T01:02:49.683Z,18.36
2022-08-17T01:08:57.502Z,18.28
2022-08-17T01:14:59.832Z,18.31
2022-08-17T01:21:17.618Z,18.36
2022-08-17T01:27:21.365Z,18.31
2022-08-17T01:33:23.532Z,18.30
2022-08-17T01:39:43.574Z,18.10
2022-08-17T01:45:49.043Z,18.10
2022-08-17T01:52:09.861Z,17.77
2022-08-17T01:58:12.417Z,17.74
2022-08-17T02:04:15.439Z,17.72
2022-08-17T02:10:20.264Z,17.63
2022-08-17T02:16:22.437Z,17.64
2022-08-17T02:22:26.125Z,17.43
2022-08-17T02:28:28.669Z,17.24
2022-08-17T02:34:32.339Z,17.09
2022-08-17T02:40:36.632Z,16.89
2022-08-17T02:46:39.026Z,16.90
2022-08-17T02:52:44.888Z,16.90
2022-08-17T02:58:57.206Z,16.80
2022-08-17T03:04:59.147Z,16.69
2022-08-17T03:11:01.132Z,16.76
2022-08-17T03:17:03.197Z,16.70
2022-08-17T03:23:05.720Z,16.91
2022-08-17T03:29:08.723Z,16.60
2022-08-17T03:35:13.787Z,16.71
2022-08-17T03:41:18.493Z,16.67
2022-08-17T03:47:39.577Z,16.70
2022-08-17T03:54:15.198Z,16.68
2022-08-17T04:00:17.765Z,16.68
2022-08-17T04:06:20.789Z,16.73
2022-08-17T04:12:24.265Z,16.65
2022-08-17T04:18:26.229Z,16.75
2022-08-17T04:24:28.291Z,16.73
2022-08-17T04:30:33.782Z,16.86
2022-08-17T04:36:36.183Z,17.13
2022-08-17T04:42:38.181Z,17.13
2022-08-17T04:48:47.070Z,17.17
2022-08-17T04:54:49.029Z,17.17
2022-08-17T05:00:51.017Z,17.33
2022-08-17T05:06:55.084Z,17.45
2022-08-17T05:13:02.633Z,17.60
2022-08-17T05:19:04.782Z,17.65
2022-08-17T05:25:07.390Z,17.86
2022-08-17T05:31:12.717Z,18.29
2022-08-17T05:37:14.721Z,18.48
2022-08-17T05:43:29.247Z,18.89
2022-08-17T05:49:31.214Z,19.18
2022-08-17T05:55:44.650Z,19.41
2022-08-17T06:02:23.235Z,19.42
2022-08-17T06:08:45.981Z,19.59
2022-08-17T06:15:27.884Z,20.04
2022-08-17T06:21:39.578Z,20.55
2022-08-17T06:28:04.826Z,21.19
2022-08-17T06:34:10.910Z,21.86
2022-08-17T06:40:45.560Z,22.45
2022-08-17T06:46:54.223Z,22.67
2022-08-17T06:53:31.636Z,23.06
2022-08-17T06:59:54.936Z,23.93
2022-08-17T07:06:05.658Z,24.41
2022-08-17T07:12:18.583Z,24.57
2022-08-17T07:18:29.770Z,24.89
2022-08-17T07:24:39.318Z,25.37
2022-08-17T07:30:54.392Z,25.70
2022-08-17T07:37:05.170Z,26.10
2022-08-17T07:43:23.766Z,26.14
2022-08-17T07:49:31.845Z,26.16
2022-08-17T07:55:35.985Z,26.98
2022-08-17T08:01:39.650Z,27.88
2022-08-17T08:07:55.737Z,28.95
2022-08-17T08:14:29.924Z,28.95
2022-08-17T08:20:55.207Z,29.13
2022-08-17T08:27:30.052Z,29.48
2022-08-17T08:34:44.429Z,29.77
2022-08-17T08:41:07.398Z,30.11
2022-08-17T08:48:12.910Z,30.90
2022-08-17T08:55:00.072Z,31.62
2022-08-17T09:01:09.452Z,32.36
2022-08-17T09:07:59.043Z,32.78
2022-08-17T09:14:21.692Z,33.20
2022-08-17T09:20:50.438Z,33.04
2022-08-17T09:27:04.321Z,32.98
2022-08-17T09:33:12.857Z,33.82
2022-08-17T09:39:55.631Z,33.92
2022-08-17T09:46:18.273Z,33.58
2022-08-17T09:52:27.902Z,33.92
2022-08-17T09:59:11.241Z,35.05
2022-08-17T10:05:23.734Z,35.84
2022-08-17T10:12:03.394Z,36.81
2022-08-17T10:18:45.879Z,37.45
2022-08-17T10:25:23.588Z,36.83
2022-08-17T10:31:38.674Z,37.73
2022-08-17T10:38:10.090Z,38.57
2022-08-17T10:44:56.263Z,39.70
2022-08-17T10:51:07.748Z,37.95
2022-08-17T10:57:31.692Z,39.48
2022-08-17T11:03:33.889Z,40.75
2022-08-17T11:10:18.926Z,41.40
2022-08-17T11:16:35.711Z,41.97
2022-08-17T11:23:10.554Z,40.56
2022-08-17T11:29:29.349Z,39.51
2022-08-17T11:35:50.355Z,37.82
2022-08-17T11:42:10.189Z,37.32
2022-08-17T11:49:11.293Z,38.80
2022-08-17T11:55:37.445Z,39.33
2022-08-17T12:01:56.646Z,38.11
2022-08-17T12:08:12.380Z,37.34
2022-08-17T12:14:45.342Z,39.71
2022-08-17T12:21:21.809Z,39.60
2022-08-17T12:28:04.221Z,37.81
2022-08-17T12:33:54.072Z,36.82
2022-08-17T12:40:16.557Z,36.21
2022-08-17T12:46:18.554Z,35.88
2022-08-17T12:52:32.819Z,35.02
2022-08-17T12:58:48.986Z,34.65
2022-08-17T13:04:50.982Z,33.69
2022-08-17T13:11:04.938Z,33.43
2022-08-17T13:17:11.249Z,33.18
2022-08-17T13:23:20.124Z,32.92
2022-08-17T13:29:51.270Z,33.40
2022-08-17T13:36:08.009Z,33.15
2022-08-17T13:42:53.058Z,33.10
2022-08-17T13:49:06.661Z,32.79
2022-08-17T13:55:19.140Z,32.27
2022-08-17T14:01:43.711Z,31.83
2022-08-17T14:07:45.761Z,31.39
2022-08-17T14:13:47.862Z,31.32
2022-08-17T14:19:50.960Z,31.21
2022-08-17T14:25:52.911Z,31.00
2022-08-17T14:31:56.690Z,31.20
2022-08-17T14:37:59.036Z,31.54
2022-08-17T14:44:01.223Z,31.58
2022-08-17T14:50:05.959Z,31.18
2022-08-17T14:56:10.767Z,31.40
2022-08-17T15:02:13.167Z,32.15
2022-08-17T15:08:16.694Z,35.25
2022-08-17T15:14:18.646Z,36.20
2022-08-17T15:20:29.742Z,36.69
2022-08-17T15:26:32.514Z,37.04
2022-08-17T15:32:38.326Z,39.37
2022-08-17T15:38:40.469Z,40.38
2022-08-17T15:44:47.022Z,41.71
2022-08-17T15:50:49.027Z,42.75
2022-08-17T15:56:51.328Z,43.28
2022-08-17T16:03:46.147Z,44.45
2022-08-17T16:09:16.355Z,45.62
2022-08-17T16:15:19.207Z,44.45
2022-08-17T16:21:27.495Z,45.46
2022-08-17T16:27:29.490Z,46.29
2022-08-17T16:33:32.603Z,45.14
2022-08-17T16:39:34.582Z,44.85
2022-08-17T16:45:40.196Z,43.08
2022-08-17T16:51:42.586Z,41.92
2022-08-17T16:57:49.976Z,40.83
2022-08-17T17:03:58.289Z,41.76
2022-08-17T17:10:11.225Z,40.18
2022-08-17T17:16:31.784Z,39.39
2022-08-17T17:23:03.092Z,38.58
2022-08-17T17:30:06.548Z,39.02
2022-08-17T17:36:48.158Z,39.52
2022-08-17T17:42:55.076Z,37.49
2022-08-17T17:48:58.093Z,36.87
2022-08-17T17:55:33.258Z,36.99
2022-08-17T18:02:38.820Z,36.19
2022-08-17T18:09:33.836Z,35.04
2022-08-17T18:15:54.343Z,33.37
2022-08-17T18:22:14.915Z,31.03
2022-08-17T18:28:33.280Z,29.54
2022-08-17T18:34:47.182Z,28.20
2022-08-17T18:41:24.405Z,27.37
2022-08-17T18:47:29.502Z,26.94
2022-08-17T18:53:40.914Z,26.50
2022-08-17T18:59:47.088Z,26.00
2022-08-17T19:06:28.284Z,25.81
2022-08-17T19:12:39.580Z,25.52
2022-08-17T19:19:04.828Z,25.47
2022-08-17T19:25:21.829Z,25.35
2022-08-17T19:31:28.646Z,24.92
2022-08-17T19:37:43.317Z,24.82
2022-08-17T19:44:02.268Z,24.70
2022-08-17T19:50:53.177Z,24.61
2022-08-17T19:57:09.153Z,24.36
2022-08-17T20:03:38.872Z,24.32
2022-08-17T20:10:05.510Z,24.03
2022-08-17T20:16:10.001Z,23.90
2022-08-17T20:22:22.870Z,23.76
2022-08-17T20:28:30.612Z,23.68
2022-08-17T20:34:39.634Z,23.53
2022-08-17T20:40:57.430Z,23.33
2022-08-17T20:47:29.109Z,23.20
2022-08-17T20:53:49.697Z,23.10
2022-08-17T20:59:52.242Z,23.30
2022-08-17T21:05:58.819Z,22.99
2022-08-17T21:12:05.541Z,22.83
2022-08-17T21:18:49.461Z,22.49
2022-08-17T21:25:19.037Z,22.26
2022-08-17T21:32:09.622Z,22.27
2022-08-17T21:38:15.160Z,22.15
2022-08-17T21:44:37.500Z,21.94
2022-08-17T21:50:43.221Z,21.71
2022-08-17T21:56:48.326Z,21.32
2022-08-17T22:03:00.608Z,21.38
2022-08-17T22:09:27.681Z,21.19
2022-08-17T22:15:29.967Z,21.03
2022-08-17T22:21:31.960Z,21.19
2022-08-17T22:28:03.527Z,20.86
2022-08-17T22:34:15.145Z,20.83
2022-08-17T22:40:31.627Z,20.81
2022-08-17T22:46:41.353Z,20.57
2022-08-17T22:53:03.775Z,20.65
2022-08-17T22:59:21.157Z,20.67
2022-08-17T23:05:24.062Z,20.67
2022-08-17T23:11:36.892Z,20.67
2022-08-17T23:17:51.028Z,20.61
2022-08-17T23:23:53.624Z,20.84
2022-08-17T23:29:56.237Z,20.85
2022-08-17T23:35:58.848Z,20.80
2022-08-17T23:42:07.903Z,20.43
2022-08-17T23:48:09.855Z,20.32
2022-08-17T23:54:25.008Z,20.21
